createdAt,value
2019-02-02T00:00:01.877Z,8.50
2019-02-02T00:02:29.330Z,10.40
2019-02-02T00:04:56.971Z,6.87
2019-02-02T00:07:24.872Z,9.53
2019-02-02T00:10:10.429Z,11.47
2019-02-02T00:12:38.139Z,8.50
2019-02-02T00:15:06.178Z,13.00
2019-02-02T00:17:33.874Z,10.80
2019-02-02T00:20:01.740Z,10.93
2019-02-02T00:22:29.320Z,13.70
2019-02-02T00:24:56.914Z,11.07
2019-02-02T00:27:24.432Z,12.03
2019-02-02T00:29:52.000Z,11.00
2019-02-02T00:32:19.868Z,12.07
2019-02-02T00:34:47.701Z,10.90
2019-02-02T00:37:15.440Z,11.93
2019-02-02T00:39:45.799Z,13.67
2019-02-02T00:42:13.198Z,11.33
2019-02-02T00:44:42.157Z,8.60
2019-02-02T00:47:09.523Z,12.93
2019-02-02T00:49:37.145Z,11.63
2019-02-02T00:52:05.009Z,11.37
2019-02-02T00:54:32.441Z,13.00
2019-02-02T00:57:00.053Z,12.33
2019-02-02T00:59:28.167Z,13.93
2019-02-02T01:01:55.674Z,14.53
2019-02-02T01:04:23.241Z,11.60
2019-02-02T01:06:50.868Z,12.50
2019-02-02T01:09:21.546Z,16.43
2019-02-02T01:11:49.109Z,12.23
2019-02-02T01:14:16.651Z,11.47
2019-02-02T01:16:44.147Z,11.73
2019-02-02T01:19:11.578Z,12.87
2019-02-02T01:21:39.356Z,10.20
2019-02-02T01:24:07.157Z,9.20
2019-02-02T01:26:34.616Z,11.07
2019-02-02T01:29:02.596Z,8.83
2019-02-02T01:31:30.293Z,9.37
2019-02-02T01:33:58.075Z,12.53
2019-02-02T01:36:25.545Z,10.40
2019-02-02T01:38:53.586Z,10.57
2019-02-02T01:41:20.931Z,9.57
2019-02-02T01:43:48.340Z,8.50
2019-02-02T01:46:16.711Z,13.50
2019-02-02T01:48:44.285Z,7.60
2019-02-02T01:51:12.059Z,11.10
2019-02-02T01:53:39.553Z,11.37
2019-02-02T01:56:07.082Z,18.90
2019-02-02T01:58:35.554Z,8.90
2019-02-02T02:01:04.008Z,12.90
2019-02-02T02:03:31.638Z,13.20
2019-02-02T02:05:59.024Z,8.67
2019-02-02T02:08:26.438Z,11.17
2019-02-02T02:10:54.259Z,11.33
2019-02-02T02:13:21.635Z,9.53
2019-02-02T02:15:49.701Z,10.97
2019-02-02T02:18:17.576Z,11.30
2019-02-02T02:20:45.308Z,10.50
2019-02-02T02:23:13.549Z,11.43
2019-02-02T02:25:40.893Z,11.23
2019-02-02T02:28:08.466Z,13.27
2019-02-02T02:30:36.343Z,10.20
2019-02-02T02:33:03.969Z,8.80
2019-02-02T02:35:31.753Z,15.53
2019-02-02T02:38:00.288Z,12.40
2019-02-02T02:40:27.683Z,13.07
2019-02-02T02:42:55.480Z,16.90
2019-02-02T02:45:23.536Z,14.87
2019-02-02T02:47:51.175Z,15.10
2019-02-02T02:50:19.331Z,16.57
2019-02-02T02:52:47.186Z,13.80
2019-02-02T02:55:15.970Z,13.53
2019-02-02T02:57:43.652Z,16.37
2019-02-02T03:00:14.203Z,15.73
2019-02-02T03:02:41.833Z,19.40
2019-02-02T03:05:09.917Z,14.30
2019-02-02T03:07:37.538Z,21.10
2019-02-02T03:10:07.277Z,12.77
2019-02-02T03:12:35.182Z,15.73
2019-02-02T03:15:04.124Z,17.83
2019-02-02T03:17:31.530Z,16.00
2019-02-02T03:19:59.552Z,12.97
2019-02-02T03:22:27.668Z,13.17
2019-02-02T03:24:58.463Z,15.00
2019-02-02T03:27:26.586Z,13.53
2019-02-02T03:29:54.707Z,17.43
2019-02-02T03:32:23.060Z,12.97
2019-02-02T03:34:51.144Z,15.63
2019-02-02T03:37:19.057Z,10.83
2019-02-02T03:39:47.227Z,14.70
2019-02-02T03:42:14.851Z,19.10
2019-02-02T03:44:42.564Z,18.40
2019-02-02T03:47:10.312Z,18.20
2019-02-02T03:49:37.680Z,15.93
2019-02-02T03:52:05.461Z,9.90
2019-02-02T03:54:33.165Z,16.87
2019-02-02T03:57:00.832Z,19.10
2019-02-02T03:59:28.197Z,13.90
2019-02-02T04:01:55.950Z,17.80
2019-02-02T04:04:23.575Z,13.13
2019-02-02T04:06:50.956Z,17.60
2019-02-02T04:09:18.979Z,14.90
2019-02-02T04:11:46.843Z,18.90
2019-02-02T04:14:14.597Z,15.20
2019-02-02T04:16:42.098Z,20.80
2019-02-02T04:19:10.085Z,15.73
2019-02-02T04:21:38.105Z,23.83
2019-02-02T04:24:05.610Z,18.77
2019-02-02T04:26:33.474Z,14.87
2019-02-02T04:29:01.708Z,18.40
2019-02-02T04:31:31.173Z,18.67
2019-02-02T04:33:58.492Z,18.93
2019-02-02T04:36:26.362Z,18.27
2019-02-02T04:38:54.199Z,19.23
2019-02-02T04:41:21.880Z,21.63
2019-02-02T04:43:50.016Z,19.83
2019-02-02T04:46:17.379Z,17.97
2019-02-02T04:48:45.953Z,20.90
2019-02-02T04:51:13.963Z,16.80
2019-02-02T04:53:41.688Z,17.43
2019-02-02T04:56:09.239Z,19.03
2019-02-02T04:58:36.555Z,14.00
2019-02-02T05:01:03.896Z,17.60
2019-02-02T05:03:31.464Z,13.10
2019-02-02T05:05:58.895Z,14.20
2019-02-02T05:08:26.725Z,18.97
2019-02-02T05:10:54.396Z,18.00
2019-02-02T05:13:21.911Z,16.40
2019-02-02T05:15:51.414Z,12.40
2019-02-02T05:18:19.658Z,17.90
2019-02-02T05:20:47.063Z,15.00
2019-02-02T05:23:14.671Z,14.00
2019-02-02T05:25:42.441Z,11.20
2019-02-02T05:28:10.017Z,15.27
2019-02-02T05:30:37.745Z,15.50
2019-02-02T05:33:05.354Z,14.70
2019-02-02T05:35:33.461Z,13.90
2019-02-02T05:38:01.034Z,13.20
2019-02-02T05:40:29.133Z,12.57
2019-02-02T05:42:56.588Z,15.57
2019-02-02T05:45:24.391Z,17.77
2019-02-02T05:47:52.094Z,19.50
2019-02-02T05:50:21.103Z,12.70
2019-02-02T05:52:48.717Z,15.33
2019-02-02T05:55:16.566Z,14.13
2019-02-02T05:57:44.622Z,13.17
2019-02-02T06:00:16.951Z,30.73
2019-02-02T06:02:44.836Z,27.73
2019-02-02T06:05:12.753Z,18.50
2019-02-02T06:07:40.778Z,15.37
2019-02-02T06:10:10.536Z,18.53
2019-02-02T06:12:38.478Z,13.40
2019-02-02T06:15:06.848Z,16.03
2019-02-02T06:17:34.871Z,14.27
2019-02-02T06:20:02.914Z,14.90
2019-02-02T06:22:30.716Z,17.10
2019-02-02T06:24:58.263Z,13.13
2019-02-02T06:27:25.720Z,18.47
2019-02-02T06:30:03.753Z,17.37
2019-02-02T06:32:23.761Z,16.93
2019-02-02T06:34:51.915Z,16.83
2019-02-02T06:37:19.632Z,16.27
2019-02-02T06:39:47.767Z,16.23
2019-02-02T06:42:15.412Z,25.43
2019-02-02T06:44:43.288Z,30.37
2019-02-02T06:47:10.888Z,21.10
2019-02-02T06:49:39.108Z,20.80
2019-02-02T06:52:07.425Z,18.60
2019-02-02T06:54:35.633Z,15.80
2019-02-02T06:57:03.450Z,14.63
2019-02-02T06:59:31.004Z,16.30
2019-02-02T07:01:59.649Z,15.70
2019-02-02T07:04:27.619Z,19.17
2019-02-02T07:06:56.021Z,18.10
2019-02-02T07:09:24.107Z,16.10
2019-02-02T07:11:51.981Z,20.70
2019-02-02T07:14:19.747Z,19.67
2019-02-02T07:16:47.905Z,20.93
2019-02-02T07:19:15.778Z,19.53
2019-02-02T07:21:44.240Z,19.57
2019-02-02T07:24:12.032Z,17.10
2019-02-02T07:26:40.116Z,20.30
2019-02-02T07:29:08.131Z,16.10
2019-02-02T07:31:37.025Z,16.23
2019-02-02T07:34:07.185Z,14.57
2019-02-02T07:36:35.031Z,16.57
2019-02-02T07:39:05.169Z,19.17
2019-02-02T07:41:33.707Z,23.97
2019-02-02T07:44:01.474Z,20.57
2019-02-02T07:46:29.850Z,17.90
2019-02-02T07:48:58.422Z,18.77
2019-02-02T07:51:26.112Z,17.53
2019-02-02T07:53:56.956Z,19.30
2019-02-02T07:56:25.086Z,18.50
2019-02-02T07:58:53.031Z,20.30
2019-02-02T08:01:21.578Z,20.67
2019-02-02T08:03:49.776Z,18.23
2019-02-02T08:06:17.733Z,20.50
2019-02-02T08:08:45.585Z,17.10
2019-02-02T08:11:13.950Z,18.90
2019-02-02T08:13:42.168Z,18.23
2019-02-02T08:16:10.450Z,21.87
2019-02-02T08:18:38.492Z,20.80
2019-02-02T08:21:06.235Z,19.57
2019-02-02T08:23:34.148Z,22.30
2019-02-02T08:26:02.190Z,19.13
2019-02-02T08:28:30.138Z,21.93
2019-02-02T08:30:57.456Z,30.80
2019-02-02T08:33:25.275Z,108.83
2019-02-02T08:35:53.174Z,57.23
2019-02-02T08:38:24.060Z,36.47
2019-02-02T08:40:51.839Z,25.03
2019-02-02T08:43:19.908Z,24.40
2019-02-02T08:45:47.867Z,26.60
2019-02-02T08:48:17.060Z,24.50
2019-02-02T08:50:45.652Z,25.20
2019-02-02T08:53:13.525Z,24.50
2019-02-02T08:55:41.272Z,27.43
2019-02-02T08:58:09.065Z,25.00
2019-02-02T09:00:38.351Z,24.27
2019-02-02T09:03:05.995Z,22.87
2019-02-02T09:05:34.258Z,29.43
2019-02-02T09:08:02.376Z,25.00
2019-02-02T09:10:30.799Z,29.10
2019-02-02T09:12:59.436Z,23.87
2019-02-02T09:15:27.260Z,23.90
2019-02-02T09:17:55.210Z,19.90
2019-02-02T09:20:23.126Z,24.80
2019-02-02T09:23:02.620Z,27.00
2019-02-02T09:25:20.652Z,27.43
2019-02-02T09:27:48.605Z,26.13
2019-02-02T09:30:22.186Z,28.70
2019-02-02T09:32:53.750Z,26.87
2019-02-02T09:35:22.426Z,24.87
2019-02-02T09:37:50.241Z,27.57
2019-02-02T09:40:19.527Z,28.90
2019-02-02T09:42:47.453Z,27.97
2019-02-02T09:45:16.266Z,24.47
2019-02-02T09:47:44.919Z,24.90
2019-02-02T09:50:15.025Z,21.43
2019-02-02T09:52:43.142Z,30.37
2019-02-02T09:55:13.049Z,37.13
2019-02-02T09:57:40.805Z,27.40
2019-02-02T10:00:12.603Z,30.50
2019-02-02T10:02:40.716Z,30.20
2019-02-02T10:05:08.673Z,28.70
2019-02-02T10:07:36.573Z,28.60
2019-02-02T10:10:06.473Z,25.77
2019-02-02T10:12:34.214Z,29.33
2019-02-02T10:15:01.909Z,28.30
2019-02-02T10:17:30.200Z,32.63
2019-02-02T10:19:57.688Z,29.00
2019-02-02T10:22:25.663Z,52.80
2019-02-02T10:24:53.547Z,28.97
2019-02-02T10:27:24.410Z,28.63
2019-02-02T10:29:52.119Z,32.50
2019-02-02T10:32:19.642Z,33.00
2019-02-02T10:34:47.127Z,39.43
2019-02-02T10:37:15.287Z,31.63
2019-02-02T10:39:43.241Z,27.90
2019-02-02T10:42:11.341Z,32.00
2019-02-02T10:44:38.919Z,26.30
2019-02-02T10:47:06.809Z,43.07
2019-02-02T10:49:35.082Z,49.10
2019-02-02T10:52:02.542Z,34.97
2019-02-02T10:54:30.659Z,31.53
2019-02-02T10:56:58.502Z,28.77
2019-02-02T10:59:26.555Z,27.07
2019-02-02T11:01:55.571Z,26.07
2019-02-02T11:04:23.285Z,31.57
2019-02-02T11:06:51.919Z,25.77
2019-02-02T11:09:20.602Z,28.97
2019-02-02T11:11:48.674Z,29.53
2019-02-02T11:14:16.439Z,28.50
2019-02-02T11:16:46.956Z,29.40
2019-02-02T11:19:15.432Z,29.37
2019-02-02T11:21:43.592Z,32.33
2019-02-02T11:24:11.846Z,31.00
2019-02-02T11:26:39.376Z,26.43
2019-02-02T11:29:07.197Z,26.70
2019-02-02T11:31:34.922Z,31.07
2019-02-02T11:34:03.895Z,29.17
2019-02-02T11:36:32.489Z,30.67
2019-02-02T11:39:02.770Z,40.77
2019-02-02T11:41:30.766Z,31.00
2019-02-02T11:43:58.712Z,27.80
2019-02-02T11:46:26.609Z,25.60
2019-02-02T11:48:54.678Z,23.73
2019-02-02T11:51:22.524Z,26.13
2019-02-02T11:53:50.215Z,23.60
2019-02-02T11:56:18.159Z,23.53
2019-02-02T11:58:45.746Z,29.27
2019-02-02T12:01:13.422Z,21.60
2019-02-02T12:03:41.421Z,24.63
2019-02-02T12:06:09.235Z,23.30
2019-02-02T12:08:37.108Z,23.47
2019-02-02T12:11:05.223Z,25.00
2019-02-02T12:13:34.451Z,23.43
2019-02-02T12:16:02.703Z,23.03
2019-02-02T12:18:31.242Z,23.40
2019-02-02T12:20:59.080Z,26.77
2019-02-02T12:23:26.765Z,24.97
2019-02-02T12:25:54.971Z,28.30
2019-02-02T12:28:22.979Z,23.97
2019-02-02T12:30:50.648Z,23.77
2019-02-02T12:33:18.578Z,24.23
2019-02-02T12:35:46.219Z,27.87
2019-02-02T12:38:13.930Z,24.73
2019-02-02T12:40:41.890Z,27.20
2019-02-02T12:43:11.623Z,26.07
2019-02-02T12:45:45.122Z,26.00
2019-02-02T12:48:13.221Z,29.53
2019-02-02T12:50:41.998Z,28.23
2019-02-02T12:53:09.626Z,27.00
2019-02-02T12:55:37.740Z,29.37
2019-02-02T12:58:06.041Z,27.20
2019-02-02T13:00:33.634Z,29.33
2019-02-02T13:03:01.388Z,33.63
2019-02-02T13:05:29.581Z,31.40
2019-02-02T13:08:00.385Z,34.63
2019-02-02T13:10:28.288Z,32.17
2019-02-02T13:12:56.296Z,35.67
2019-02-02T13:15:25.148Z,30.77
2019-02-02T13:17:53.019Z,31.80
2019-02-02T13:20:21.496Z,29.90
2019-02-02T13:22:49.675Z,36.17
2019-02-02T13:25:18.868Z,33.47
2019-02-02T13:27:47.137Z,32.33
2019-02-02T13:30:20.834Z,35.60
2019-02-02T13:32:50.085Z,34.77
2019-02-02T13:35:18.959Z,35.10
2019-02-02T13:37:46.938Z,36.50
2019-02-02T13:40:16.641Z,34.57
2019-02-02T13:42:46.646Z,34.00
2019-02-02T13:45:15.339Z,33.27
2019-02-02T13:47:43.482Z,36.57
2019-02-02T13:50:12.907Z,35.67
2019-02-02T13:52:41.500Z,39.07
2019-02-02T13:55:09.720Z,42.03
2019-02-02T13:57:46.765Z,37.60
2019-02-02T14:00:17.239Z,36.03
2019-02-02T14:02:45.202Z,36.87
2019-02-02T14:05:14.220Z,40.90
2019-02-02T14:07:42.156Z,35.43
2019-02-02T14:10:12.632Z,33.30
2019-02-02T14:12:40.575Z,36.50
2019-02-02T14:15:09.592Z,34.40
2019-02-02T14:17:37.533Z,34.90
2019-02-02T14:20:05.830Z,43.83
2019-02-02T14:22:33.923Z,39.63
2019-02-02T14:25:02.268Z,37.80
2019-02-02T14:27:30.114Z,37.13
2019-02-02T14:29:59.754Z,34.10
2019-02-02T14:32:28.021Z,33.23
2019-02-02T14:34:55.897Z,40.80
2019-02-02T14:37:23.918Z,40.80
2019-02-02T14:39:51.515Z,33.80
2019-02-02T14:42:19.819Z,36.80
2019-02-02T14:44:47.971Z,34.10
2019-02-02T14:47:18.553Z,33.90
2019-02-02T14:49:46.452Z,35.27
2019-02-02T14:52:14.419Z,38.70
2019-02-02T14:54:42.641Z,37.63
2019-02-02T14:57:10.166Z,38.07
2019-02-02T14:59:37.670Z,40.33
2019-02-02T15:02:05.744Z,35.33
2019-02-02T15:04:33.749Z,38.50
2019-02-02T15:07:02.059Z,37.53
2019-02-02T15:09:29.998Z,34.50
2019-02-02T15:11:57.613Z,42.63
2019-02-02T15:14:25.779Z,34.37
2019-02-02T15:16:53.255Z,34.27
2019-02-02T15:19:21.390Z,33.80
2019-02-02T15:21:49.730Z,30.90
2019-02-02T15:24:20.262Z,58.00
2019-02-02T15:26:48.575Z,70.37
2019-02-02T15:29:16.915Z,49.90
2019-02-02T15:31:44.734Z,37.43
2019-02-02T15:34:13.505Z,36.30
2019-02-02T15:36:41.047Z,41.10
2019-02-02T15:39:09.424Z,36.13
2019-02-02T15:41:38.153Z,39.70
2019-02-02T15:44:05.811Z,46.33
2019-02-02T15:46:34.024Z,41.23
2019-02-02T15:49:01.906Z,39.20
2019-02-02T15:51:40.106Z,42.20
2019-02-02T15:54:00.092Z,41.90
2019-02-02T15:56:27.749Z,42.57
2019-02-02T15:58:55.504Z,40.17
2019-02-02T16:01:23.450Z,37.93
2019-02-02T16:03:54.291Z,41.50
2019-02-02T16:06:22.012Z,39.50
2019-02-02T16:08:49.862Z,41.07
2019-02-02T16:11:17.752Z,39.30
2019-02-02T16:13:46.455Z,43.63
2019-02-02T16:16:14.382Z,42.90
2019-02-02T16:18:43.482Z,45.47
2019-02-02T16:21:11.483Z,43.13
2019-02-02T16:23:39.330Z,44.97
2019-02-02T16:26:07.630Z,41.17
2019-02-02T16:28:37.297Z,47.50
2019-02-02T16:31:05.316Z,45.93
2019-02-02T16:33:33.097Z,79.20
2019-02-02T16:36:00.834Z,62.43
2019-02-02T16:38:28.783Z,49.73
2019-02-02T16:40:56.928Z,45.53
2019-02-02T16:43:24.939Z,42.07
2019-02-02T16:45:53.090Z,44.40
2019-02-02T16:48:21.615Z,43.60
2019-02-02T16:50:49.616Z,45.37
2019-02-02T16:53:17.446Z,45.17
2019-02-02T16:55:45.058Z,41.67
2019-02-02T16:58:12.854Z,37.50
2019-02-02T17:00:41.118Z,44.53
2019-02-02T17:03:09.252Z,37.07
2019-02-02T17:05:36.943Z,40.80
2019-02-02T17:08:05.286Z,37.57
2019-02-02T17:10:34.719Z,40.27
2019-02-02T17:13:06.215Z,41.67
2019-02-02T17:15:33.920Z,43.20
2019-02-02T17:18:07.905Z,39.77
2019-02-02T17:20:40.761Z,37.30
2019-02-02T17:23:08.538Z,40.10
2019-02-02T17:25:36.947Z,40.83
2019-02-02T17:28:05.270Z,36.33
2019-02-02T17:30:33.709Z,36.87
2019-02-02T17:33:02.580Z,36.33
2019-02-02T17:35:30.772Z,34.60
2019-02-02T17:37:58.449Z,42.77
2019-02-02T17:40:26.559Z,41.30
2019-02-02T17:42:54.265Z,41.17
2019-02-02T17:45:22.031Z,42.10
2019-02-02T17:47:49.798Z,38.77
2019-02-02T17:50:19.005Z,44.10
2019-02-02T17:52:46.829Z,44.77
2019-02-02T17:55:14.846Z,42.40
2019-02-02T17:57:42.579Z,45.50
2019-02-02T18:00:13.302Z,46.67
2019-02-02T18:02:40.938Z,43.30
2019-02-02T18:05:08.794Z,66.00
2019-02-02T18:07:36.228Z,56.63
2019-02-02T18:10:05.526Z,54.17
2019-02-02T18:12:33.221Z,47.27
2019-02-02T18:15:03.799Z,47.87
2019-02-02T18:17:31.707Z,46.23
2019-02-02T18:19:59.702Z,57.17
2019-02-02T18:22:27.952Z,56.57
2019-02-02T18:24:55.598Z,49.00
2019-02-02T18:27:23.257Z,48.40
2019-02-02T18:29:51.428Z,45.60
2019-02-02T18:32:19.056Z,45.00
2019-02-02T18:34:51.196Z,47.60
2019-02-02T18:37:17.543Z,48.10
2019-02-02T18:39:45.092Z,44.00
2019-02-02T18:42:13.499Z,50.67
2019-02-02T18:44:41.304Z,49.10
2019-02-02T18:47:08.819Z,50.73
2019-02-02T18:49:36.749Z,60.17
2019-02-02T18:52:13.508Z,52.80
2019-02-02T18:54:41.336Z,53.03
2019-02-02T18:57:09.930Z,56.03
2019-02-02T18:59:37.881Z,50.73
2019-02-02T19:02:05.907Z,56.07
2019-02-02T19:04:33.758Z,53.70
2019-02-02T19:07:01.462Z,52.20
2019-02-02T19:09:28.768Z,43.90
2019-02-02T19:11:59.490Z,49.10
2019-02-02T19:14:27.210Z,48.00
2019-02-02T19:17:01.101Z,49.67
2019-02-02T19:19:24.561Z,51.63
2019-02-02T19:21:52.744Z,54.97
2019-02-02T19:24:20.327Z,51.03
2019-02-02T19:26:48.523Z,95.00
2019-02-02T19:29:15.921Z,71.80
2019-02-02T19:31:44.047Z,49.83
2019-02-02T19:34:12.434Z,47.00
2019-02-02T19:36:40.650Z,45.87
2019-02-02T19:39:08.980Z,52.97
2019-02-02T19:41:37.302Z,47.03
2019-02-02T19:44:05.101Z,43.53
2019-02-02T19:46:32.657Z,42.07
2019-02-02T19:49:00.453Z,43.27
2019-02-02T19:51:27.976Z,42.57
2019-02-02T19:53:56.251Z,50.50
2019-02-02T19:56:23.896Z,45.20
2019-02-02T19:58:51.615Z,46.90
2019-02-02T20:01:19.884Z,42.20
2019-02-02T20:03:47.611Z,47.33
2019-02-02T20:06:15.097Z,48.23
2019-02-02T20:08:42.900Z,52.63
2019-02-02T20:11:11.153Z,43.13
2019-02-02T20:13:39.781Z,45.00
2019-02-02T20:16:07.458Z,49.37
2019-02-02T20:18:35.292Z,55.40
2019-02-02T20:21:03.373Z,48.90
2019-02-02T20:23:31.230Z,47.50
2019-02-02T20:25:59.236Z,44.50
2019-02-02T20:28:27.095Z,45.20
2019-02-02T20:30:55.290Z,43.90
2019-02-02T20:33:23.127Z,42.60
2019-02-02T20:35:51.134Z,44.90
2019-02-02T20:38:19.002Z,46.40
2019-02-02T20:40:46.999Z,46.10
2019-02-02T20:43:14.871Z,46.53
2019-02-02T20:45:42.580Z,49.80
2019-02-02T20:48:10.078Z,50.00
2019-02-02T20:50:38.583Z,49.17
2019-02-02T20:53:06.430Z,40.40
2019-02-02T20:55:37.090Z,48.93
2019-02-02T20:58:06.213Z,39.60
2019-02-02T21:00:34.761Z,43.97
2019-02-02T21:03:02.460Z,39.37
2019-02-02T21:05:32.055Z,42.23
2019-02-02T21:08:00.634Z,40.07
2019-02-02T21:10:28.673Z,37.50
2019-02-02T21:12:57.416Z,46.60
2019-02-02T21:15:25.330Z,42.83
2019-02-02T21:17:53.046Z,170.30
2019-02-02T21:20:22.920Z,74.23
2019-02-02T21:22:51.124Z,51.30
2019-02-02T21:25:19.221Z,56.17
2019-02-02T21:27:47.346Z,50.00
2019-02-02T21:30:41.201Z,47.70
2019-02-02T21:33:08.767Z,54.00
2019-02-02T21:35:36.325Z,45.17
2019-02-02T21:38:04.508Z,48.53
2019-02-02T21:40:33.021Z,57.40
2019-02-02T21:43:00.857Z,50.33
2019-02-02T21:45:28.389Z,58.93
2019-02-02T21:47:55.983Z,52.10
2019-02-02T21:50:23.769Z,55.03
2019-02-02T21:52:51.346Z,50.57
2019-02-02T21:55:20.997Z,49.23
2019-02-02T21:57:48.434Z,51.73
2019-02-02T22:00:39.493Z,53.33
2019-02-02T22:03:07.377Z,44.67
2019-02-02T22:05:35.230Z,51.07
2019-02-02T22:08:03.415Z,46.87
2019-02-02T22:10:30.902Z,54.00
2019-02-02T22:12:58.888Z,56.70
2019-02-02T22:15:26.378Z,58.40
2019-02-02T22:17:53.692Z,55.37
2019-02-02T22:20:21.828Z,61.90
2019-02-02T22:22:50.410Z,60.40
2019-02-02T22:25:23.522Z,60.37
2019-02-02T22:27:52.064Z,59.20
2019-02-02T22:30:24.430Z,52.27
2019-02-02T22:32:52.257Z,64.43
2019-02-02T22:35:19.580Z,47.87
2019-02-02T22:37:48.096Z,56.53
2019-02-02T22:40:17.451Z,56.40
2019-02-02T22:42:45.253Z,55.57
2019-02-02T22:45:14.522Z,47.57
2019-02-02T22:47:42.193Z,51.73
2019-02-02T22:50:12.214Z,51.20
2019-02-02T22:52:39.746Z,53.43
2019-02-02T22:55:08.313Z,53.47
2019-02-02T22:57:35.740Z,50.13
2019-02-02T23:00:56.622Z,56.90
2019-02-02T23:03:38.878Z,52.60
2019-02-02T23:06:51.349Z,47.33
2019-02-02T23:09:57.715Z,49.83
2019-02-02T23:12:59.652Z,55.23
2019-02-02T23:16:07.993Z,53.53
2019-02-02T23:18:35.426Z,52.70
2019-02-02T23:21:04.894Z,51.30
2019-02-02T23:23:32.510Z,52.83
2019-02-02T23:26:00.431Z,56.13
2019-02-02T23:28:28.295Z,52.23
2019-02-02T23:30:56.116Z,55.00
2019-02-02T23:33:30.374Z,54.83
2019-02-02T23:35:58.524Z,48.23
2019-02-02T23:38:26.477Z,48.53
2019-02-02T23:40:54.807Z,52.70
2019-02-02T23:43:22.811Z,46.43
2019-02-02T23:45:50.314Z,44.37
2019-02-02T23:48:18.211Z,49.43
2019-02-02T23:50:46.336Z,57.67
2019-02-02T23:53:13.995Z,50.20
2019-02-02T23:55:41.615Z,49.30
2019-02-02T23:58:09.722Z,49.93
